sensor_id;sensor_type;location;lat;lon;timestamp;temperature;humidity
30893;DHT22;17595;50.884;4.346;2022-12-07T00:03:35;8.90;99.90
30893;DHT22;17595;50.884;4.346;2022-12-07T00:06:03;8.90;99.90
30893;DHT22;17595;50.884;4.346;2022-12-07T00:08:29;8.90;99.90
30893;DHT22;17595;50.884;4.346;2022-12-07T00:10:55;8.80;99.90
30893;DHT22;17595;50.884;4.346;2022-12-07T00:13:20;8.80;99.90
30893;DHT22;17595;50.884;4.346;2022-12-07T00:15:46;8.80;99.90
30893;DHT22;17595;50.884;4.346;2022-12-07T00:18:11;8.80;99.90
30893;DHT22;17595;50.884;4.346;2022-12-07T00:20:37;8.80;99.90
30893;DHT22;17595;50.884;4.346;2022-12-07T00:23:03;8.80;99.90
30893;DHT22;17595;50.884;4.346;2022-12-07T00:25:30;8.80;99.90
30893;DHT22;17595;50.884;4.346;2022-12-07T00:27:55;8.70;99.90
30893;DHT22;17595;50.884;4.346;2022-12-07T00:30:22;8.80;99.90
30893;DHT22;17595;50.884;4.346;2022-12-07T00:32:49;8.80;99.90
30893;DHT22;17595;50.884;4.346;2022-12-07T00:35:14;8.80;99.90
30893;DHT22;17595;50.884;4.346;2022-12-07T00:37:40;8.70;99.90
30893;DHT22;17595;50.884;4.346;2022-12-07T00:40:06;8.60;99.90
30893;DHT22;17595;50.884;4.346;2022-12-07T00:42:32;8.60;99.90
30893;DHT22;17595;50.884;4.346;2022-12-07T00:44:57;8.60;99.90
30893;DHT22;17595;50.884;4.346;2022-12-07T00:47:23;8.60;99.90
30893;DHT22;17595;50.884;4.346;2022-12-07T00:49:48;8.60;99.90
30893;DHT22;17595;50.884;4.346;2022-12-07T00:52:14;8.50;99.90
30893;DHT22;17595;50.884;4.346;2022-12-07T00:54:40;8.40;99.90
30893;DHT22;17595;50.884;4.346;2022-12-07T00:57:06;8.50;99.90
30893;DHT22;17595;50.884;4.346;2022-12-07T00:59:31;8.40;99.90
30893;DHT22;17595;50.884;4.346;2022-12-07T01:01:57;8.40;99.90
30893;DHT22;17595;50.884;4.346;2022-12-07T01:04:22;8.30;99.90
30893;DHT22;17595;50.884;4.346;2022-12-07T01:06:48;8.40;99.90
30893;DHT22;17595;50.884;4.346;2022-12-07T01:09:13;8.40;99.90
30893;DHT22;17595;50.884;4.346;2022-12-07T01:11:39;8.40;99.90
30893;DHT22;17595;50.884;4.346;2022-12-07T01:14:05;8.40;99.90
30893;DHT22;17595;50.884;4.346;2022-12-07T01:16:32;8.40;99.90
30893;DHT22;17595;50.884;4.346;2022-12-07T01:18:58;8.40;99.90
30893;DHT22;17595;50.884;4.346;2022-12-07T01:21:27;8.30;99.90
30893;DHT22;17595;50.884;4.346;2022-12-07T01:23:54;8.30;99.90
30893;DHT22;17595;50.884;4.346;2022-12-07T01:26:22;8.30;99.90
30893;DHT22;17595;50.884;4.346;2022-12-07T01:28:48;8.30;99.90
30893;DHT22;17595;50.884;4.346;2022-12-07T01:31:16;8.20;99.90
30893;DHT22;17595;50.884;4.346;2022-12-07T01:33:44;8.20;99.90
30893;DHT22;17595;50.884;4.346;2022-12-07T01:36:22;8.30;99.90
30893;DHT22;17595;50.884;4.346;2022-12-07T01:38:50;8.30;99.90
30893;DHT22;17595;50.884;4.346;2022-12-07T01:41:19;8.30;99.90
30893;DHT22;17595;50.884;4.346;2022-12-07T01:46:32;8.30;99.90
30893;DHT22;17595;50.884;4.346;2022-12-07T01:48:58;8.30;99.90
30893;DHT22;17595;50.884;4.346;2022-12-07T01:51:24;8.30;99.90
30893;DHT22;17595;50.884;4.346;2022-12-07T01:53:50;8.20;99.90
30893;DHT22;17595;50.884;4.346;2022-12-07T01:56:20;8.40;99.90
30893;DHT22;17595;50.884;4.346;2022-12-07T01:58:48;8.30;99.90
30893;DHT22;17595;50.884;4.346;2022-12-07T02:01:14;8.30;99.90
30893;DHT22;17595;50.884;4.346;2022-12-07T02:03:41;8.30;99.90
30893;DHT22;17595;50.884;4.346;2022-12-07T02:06:10;8.30;99.90
30893;DHT22;17595;50.884;4.346;2022-12-07T02:08:36;8.20;99.90
30893;DHT22;17595;50.884;4.346;2022-12-07T02:11:03;8.30;99.90
30893;DHT22;17595;50.884;4.346;2022-12-07T02:13:32;8.50;99.90
30893;DHT22;17595;50.884;4.346;2022-12-07T02:16:12;8.70;99.90
30893;DHT22;17595;50.884;4.346;2022-12-07T02:30:08;8.30;99.90
30893;DHT22;17595;50.884;4.346;2022-12-07T02:35:28;8.10;99.90
30893;DHT22;17595;50.884;4.346;2022-12-07T02:41:11;8.40;99.90
30893;DHT22;17595;50.884;4.346;2022-12-07T02:43:41;8.60;99.90
30893;DHT22;17595;50.884;4.346;2022-12-07T02:46:11;8.60;99.90
30893;DHT22;17595;50.884;4.346;2022-12-07T02:48:40;8.60;99.90
30893;DHT22;17595;50.884;4.346;2022-12-07T02:51:06;8.50;99.90
30893;DHT22;17595;50.884;4.346;2022-12-07T03:07:24;7.90;99.90
30893;DHT22;17595;50.884;4.346;2022-12-07T03:15:47;8.00;99.90
30893;DHT22;17595;50.884;4.346;2022-12-07T03:18:19;7.90;99.90
30893;DHT22;17595;50.884;4.346;2022-12-07T03:20:45;7.90;99.90
30893;DHT22;17595;50.884;4.346;2022-12-07T03:23:15;7.90;99.90
30893;DHT22;17595;50.884;4.346;2022-12-07T03:25:47;8.00;99.90
30893;DHT22;17595;50.884;4.346;2022-12-07T03:28:16;8.00;99.90
30893;DHT22;17595;50.884;4.346;2022-12-07T03:30:57;8.10;99.90
30893;DHT22;17595;50.884;4.346;2022-12-07T03:33:29;8.20;99.90
30893;DHT22;17595;50.884;4.346;2022-12-07T03:36:20;8.20;99.90
30893;DHT22;17595;50.884;4.346;2022-12-07T03:38:55;8.10;99.90
30893;DHT22;17595;50.884;4.346;2022-12-07T03:41:25;8.10;99.90
30893;DHT22;17595;50.884;4.346;2022-12-07T03:43:53;8.10;99.90
30893;DHT22;17595;50.884;4.346;2022-12-07T03:54:14;8.20;99.90
30893;DHT22;17595;50.884;4.346;2022-12-07T03:56:42;8.20;99.90
30893;DHT22;17595;50.884;4.346;2022-12-07T03:59:09;8.20;99.90
30893;DHT22;17595;50.884;4.346;2022-12-07T04:01:35;8.20;99.90
30893;DHT22;17595;50.884;4.346;2022-12-07T04:04:00;8.10;99.90
30893;DHT22;17595;50.884;4.346;2022-12-07T04:06:26;8.10;99.90
30893;DHT22;17595;50.884;4.346;2022-12-07T04:08:52;8.00;99.90
30893;DHT22;17595;50.884;4.346;2022-12-07T04:11:17;7.90;99.90
30893;DHT22;17595;50.884;4.346;2022-12-07T04:13:43;7.90;99.90
30893;DHT22;17595;50.884;4.346;2022-12-07T04:16:27;7.90;99.90
30893;DHT22;17595;50.884;4.346;2022-12-07T04:18:52;7.80;99.90
30893;DHT22;17595;50.884;4.346;2022-12-07T04:21:18;7.80;99.90
30893;DHT22;17595;50.884;4.346;2022-12-07T04:23:43;7.70;99.90
30893;DHT22;17595;50.884;4.346;2022-12-07T04:26:09;7.70;99.90
30893;DHT22;17595;50.884;4.346;2022-12-07T04:28:35;7.60;99.90
30893;DHT22;17595;50.884;4.346;2022-12-07T04:31:00;7.60;99.90
30893;DHT22;17595;50.884;4.346;2022-12-07T04:33:26;7.70;99.90
30893;DHT22;17595;50.884;4.346;2022-12-07T04:35:51;7.70;99.90
30893;DHT22;17595;50.884;4.346;2022-12-07T04:38:17;7.70;99.90
30893;DHT22;17595;50.884;4.346;2022-12-07T04:40:42;7.80;99.90
30893;DHT22;17595;50.884;4.346;2022-12-07T04:43:08;7.90;99.90
30893;DHT22;17595;50.884;4.346;2022-12-07T04:45:33;7.90;99.90
30893;DHT22;17595;50.884;4.346;2022-12-07T04:47:59;7.90;99.90
30893;DHT22;17595;50.884;4.346;2022-12-07T04:50:25;7.90;99.90
30893;DHT22;17595;50.884;4.346;2022-12-07T04:52:50;8.00;99.90
30893;DHT22;17595;50.884;4.346;2022-12-07T04:55:16;7.90;99.90
30893;DHT22;17595;50.884;4.346;2022-12-07T04:57:41;8.00;99.90
30893;DHT22;17595;50.884;4.346;2022-12-07T05:00:07;8.10;99.90
30893;DHT22;17595;50.884;4.346;2022-12-07T05:02:33;8.10;99.90
30893;DHT22;17595;50.884;4.346;2022-12-07T05:04:59;8.10;99.90
30893;DHT22;17595;50.884;4.346;2022-12-07T05:07:24;7.90;99.90
30893;DHT22;17595;50.884;4.346;2022-12-07T05:09:50;7.80;99.90
30893;DHT22;17595;50.884;4.346;2022-12-07T05:12:15;7.80;99.90
30893;DHT22;17595;50.884;4.346;2022-12-07T05:14:41;7.80;99.90
30893;DHT22;17595;50.884;4.346;2022-12-07T05:17:07;7.70;99.90
30893;DHT22;17595;50.884;4.346;2022-12-07T05:19:32;7.70;99.90
30893;DHT22;17595;50.884;4.346;2022-12-07T05:21:58;7.70;99.90
30893;DHT22;17595;50.884;4.346;2022-12-07T05:24:23;7.60;99.90
30893;DHT22;17595;50.884;4.346;2022-12-07T05:26:49;7.60;99.90
30893;DHT22;17595;50.884;4.346;2022-12-07T05:29:16;7.50;99.90
30893;DHT22;17595;50.884;4.346;2022-12-07T05:31:42;7.50;99.90
30893;DHT22;17595;50.884;4.346;2022-12-07T05:34:09;7.70;99.90
30893;DHT22;17595;50.884;4.346;2022-12-07T05:36:35;7.70;99.90
30893;DHT22;17595;50.884;4.346;2022-12-07T05:39:00;7.70;99.90
30893;DHT22;17595;50.884;4.346;2022-12-07T05:41:26;7.80;99.90
30893;DHT22;17595;50.884;4.346;2022-12-07T05:44:10;7.80;99.90
30893;DHT22;17595;50.884;4.346;2022-12-07T05:46:36;7.80;99.90
30893;DHT22;17595;50.884;4.346;2022-12-07T05:49:02;7.80;99.90
30893;DHT22;17595;50.884;4.346;2022-12-07T05:51:28;7.70;99.90
30893;DHT22;17595;50.884;4.346;2022-12-07T05:53:53;7.80;99.90
30893;DHT22;17595;50.884;4.346;2022-12-07T05:56:19;7.70;99.90
30893;DHT22;17595;50.884;4.346;2022-12-07T05:58:45;7.60;99.90
30893;DHT22;17595;50.884;4.346;2022-12-07T06:01:29;7.60;99.90
30893;DHT22;17595;50.884;4.346;2022-12-07T06:03:55;7.60;99.90
30893;DHT22;17595;50.884;4.346;2022-12-07T06:06:20;7.60;99.90
30893;DHT22;17595;50.884;4.346;2022-12-07T06:08:46;7.70;99.90
30893;DHT22;17595;50.884;4.346;2022-12-07T06:11:12;7.60;99.90
30893;DHT22;17595;50.884;4.346;2022-12-07T06:13:56;7.60;99.90
30893;DHT22;17595;50.884;4.346;2022-12-07T06:16:22;7.60;99.90
30893;DHT22;17595;50.884;4.346;2022-12-07T06:18:47;7.70;99.90
30893;DHT22;17595;50.884;4.346;2022-12-07T06:21:13;7.80;99.90
30893;DHT22;17595;50.884;4.346;2022-12-07T06:23:39;7.80;99.90
30893;DHT22;17595;50.884;4.346;2022-12-07T06:26:05;7.90;99.90
30893;DHT22;17595;50.884;4.346;2022-12-07T06:28:30;8.00;99.90
30893;DHT22;17595;50.884;4.346;2022-12-07T06:31:00;7.90;99.90
30893;DHT22;17595;50.884;4.346;2022-12-07T06:33:26;8.00;99.90
30893;DHT22;17595;50.884;4.346;2022-12-07T06:35:52;8.00;99.90
30893;DHT22;17595;50.884;4.346;2022-12-07T06:38:18;8.10;99.90
30893;DHT22;17595;50.884;4.346;2022-12-07T06:40:43;8.10;99.90
30893;DHT22;17595;50.884;4.346;2022-12-07T06:43:09;8.00;99.90
30893;DHT22;17595;50.884;4.346;2022-12-07T06:45:34;8.00;99.90
30893;DHT22;17595;50.884;4.346;2022-12-07T06:48:00;8.00;99.90
30893;DHT22;17595;50.884;4.346;2022-12-07T06:50:26;8.10;99.90
30893;DHT22;17595;50.884;4.346;2022-12-07T06:52:52;8.10;99.90
30893;DHT22;17595;50.884;4.346;2022-12-07T06:55:17;8.20;99.90
30893;DHT22;17595;50.884;4.346;2022-12-07T06:57:43;8.10;99.90
30893;DHT22;17595;50.884;4.346;2022-12-07T07:00:09;8.00;99.90
30893;DHT22;17595;50.884;4.346;2022-12-07T07:02:35;8.10;99.90
30893;DHT22;17595;50.884;4.346;2022-12-07T07:05:01;8.30;99.90
30893;DHT22;17595;50.884;4.346;2022-12-07T07:07:26;8.30;99.90
30893;DHT22;17595;50.884;4.346;2022-12-07T07:09:52;8.30;99.90
30893;DHT22;17595;50.884;4.346;2022-12-07T07:12:17;8.10;99.90
30893;DHT22;17595;50.884;4.346;2022-12-07T07:14:43;8.00;99.90
30893;DHT22;17595;50.884;4.346;2022-12-07T07:17:09;8.00;99.90
30893;DHT22;17595;50.884;4.346;2022-12-07T07:19:34;7.90;99.90
30893;DHT22;17595;50.884;4.346;2022-12-07T07:22:00;7.90;99.90
30893;DHT22;17595;50.884;4.346;2022-12-07T07:24:25;8.00;99.90
30893;DHT22;17595;50.884;4.346;2022-12-07T07:26:51;8.00;99.90
30893;DHT22;17595;50.884;4.346;2022-12-07T07:29:17;8.00;99.90
30893;DHT22;17595;50.884;4.346;2022-12-07T07:31:42;8.10;99.90
30893;DHT22;17595;50.884;4.346;2022-12-07T07:34:08;8.20;99.90
30893;DHT22;17595;50.884;4.346;2022-12-07T07:36:33;8.20;99.90
30893;DHT22;17595;50.884;4.346;2022-12-07T07:38:59;8.20;99.90
30893;DHT22;17595;50.884;4.346;2022-12-07T07:41:24;8.20;99.90
30893;DHT22;17595;50.884;4.346;2022-12-07T07:43:50;8.10;99.90
30893;DHT22;17595;50.884;4.346;2022-12-07T07:46:16;8.00;99.90
30893;DHT22;17595;50.884;4.346;2022-12-07T07:48:43;8.10;99.90
30893;DHT22;17595;50.884;4.346;2022-12-07T07:51:08;8.20;99.90
30893;DHT22;17595;50.884;4.346;2022-12-07T07:53:34;8.10;99.90
30893;DHT22;17595;50.884;4.346;2022-12-07T07:56:00;8.20;99.90
30893;DHT22;17595;50.884;4.346;2022-12-07T07:58:25;8.30;99.90
30893;DHT22;17595;50.884;4.346;2022-12-07T08:00:51;8.20;99.90
30893;DHT22;17595;50.884;4.346;2022-12-07T08:03:17;8.30;99.90
30893;DHT22;17595;50.884;4.346;2022-12-07T08:05:43;8.20;99.90
30893;DHT22;17595;50.884;4.346;2022-12-07T08:08:08;8.10;99.90
30893;DHT22;17595;50.884;4.346;2022-12-07T08:10:34;8.10;99.90
30893;DHT22;17595;50.884;4.346;2022-12-07T08:13:00;8.10;99.90
30893;DHT22;17595;50.884;4.346;2022-12-07T08:15:44;8.00;99.90
30893;DHT22;17595;50.884;4.346;2022-12-07T08:18:10;7.90;99.90
30893;DHT22;17595;50.884;4.346;2022-12-07T08:20:37;7.90;99.90
30893;DHT22;17595;50.884;4.346;2022-12-07T08:23:04;7.90;99.90
30893;DHT22;17595;50.884;4.346;2022-12-07T08:25:29;7.80;99.90
30893;DHT22;17595;50.884;4.346;2022-12-07T08:27:55;7.80;99.90
30893;DHT22;17595;50.884;4.346;2022-12-07T08:30:21;7.80;99.90
30893;DHT22;17595;50.884;4.346;2022-12-07T08:32:48;7.80;99.90
30893;DHT22;17595;50.884;4.346;2022-12-07T08:35:14;7.80;99.90
30893;DHT22;17595;50.884;4.346;2022-12-07T08:37:40;7.80;99.90
30893;DHT22;17595;50.884;4.346;2022-12-07T08:40:08;7.80;99.90
30893;DHT22;17595;50.884;4.346;2022-12-07T08:42:34;7.80;99.90
30893;DHT22;17595;50.884;4.346;2022-12-07T08:45:10;7.90;99.90
30893;DHT22;17595;50.884;4.346;2022-12-07T08:47:43;7.90;99.90
30893;DHT22;17595;50.884;4.346;2022-12-07T08:50:11;8.00;99.90
30893;DHT22;17595;50.884;4.346;2022-12-07T08:52:38;8.10;99.90
30893;DHT22;17595;50.884;4.346;2022-12-07T08:55:06;8.20;99.90
30893;DHT22;17595;50.884;4.346;2022-12-07T08:57:32;8.40;99.90
30893;DHT22;17595;50.884;4.346;2022-12-07T09:00:00;8.50;99.90
30893;DHT22;17595;50.884;4.346;2022-12-07T09:02:25;8.50;99.90
30893;DHT22;17595;50.884;4.346;2022-12-07T09:04:51;8.60;99.90
30893;DHT22;17595;50.884;4.346;2022-12-07T09:07:17;8.70;99.90
30893;DHT22;17595;50.884;4.346;2022-12-07T09:09:43;8.80;99.90
30893;DHT22;17595;50.884;4.346;2022-12-07T09:12:08;8.80;99.90
30893;DHT22;17595;50.884;4.346;2022-12-07T09:14:34;8.80;99.90
30893;DHT22;17595;50.884;4.346;2022-12-07T09:17:11;8.90;99.90
30893;DHT22;17595;50.884;4.346;2022-12-07T09:19:37;8.90;99.90
30893;DHT22;17595;50.884;4.346;2022-12-07T09:22:03;8.90;99.90
30893;DHT22;17595;50.884;4.346;2022-12-07T09:24:31;8.90;99.90
30893;DHT22;17595;50.884;4.346;2022-12-07T09:26:57;8.80;99.90
30893;DHT22;17595;50.884;4.346;2022-12-07T09:29:23;8.90;99.90
30893;DHT22;17595;50.884;4.346;2022-12-07T09:31:49;8.90;99.90
30893;DHT22;17595;50.884;4.346;2022-12-07T09:34:14;8.90;99.90
30893;DHT22;17595;50.884;4.346;2022-12-07T09:36:40;8.80;99.90
30893;DHT22;17595;50.884;4.346;2022-12-07T09:39:07;8.70;99.90
30893;DHT22;17595;50.884;4.346;2022-12-07T09:41:33;8.70;99.90
30893;DHT22;17595;50.884;4.346;2022-12-07T09:44:09;8.70;99.90
30893;DHT22;17595;50.884;4.346;2022-12-07T09:46:38;8.70;99.90
30893;DHT22;17595;50.884;4.346;2022-12-07T09:49:05;8.90;99.90
30893;DHT22;17595;50.884;4.346;2022-12-07T09:51:31;8.90;99.90
30893;DHT22;17595;50.884;4.346;2022-12-07T09:53:58;9.00;99.90
30893;DHT22;17595;50.884;4.346;2022-12-07T09:56:25;9.00;99.90
30893;DHT22;17595;50.884;4.346;2022-12-07T09:58:58;9.00;99.90
30893;DHT22;17595;50.884;4.346;2022-12-07T10:01:24;9.20;99.90
30893;DHT22;17595;50.884;4.346;2022-12-07T10:06:18;9.20;99.90
30893;DHT22;17595;50.884;4.346;2022-12-07T10:08:44;9.30;99.90
30893;DHT22;17595;50.884;4.346;2022-12-07T10:11:10;9.40;99.90
30893;DHT22;17595;50.884;4.346;2022-12-07T10:13:41;9.30;99.90
30893;DHT22;17595;50.884;4.346;2022-12-07T10:16:38;9.00;99.90
30893;DHT22;17595;50.884;4.346;2022-12-07T10:19:27;9.00;99.90
30893;DHT22;17595;50.884;4.346;2022-12-07T10:22:07;8.90;99.90
30893;DHT22;17595;50.884;4.346;2022-12-07T10:24:34;8.90;99.90
30893;DHT22;17595;50.884;4.346;2022-12-07T10:27:00;8.90;99.90
30893;DHT22;17595;50.884;4.346;2022-12-07T10:29:30;9.00;99.90
30893;DHT22;17595;50.884;4.346;2022-12-07T10:31:58;9.00;99.90
30893;DHT22;17595;50.884;4.346;2022-12-07T10:34:31;9.10;99.90
30893;DHT22;17595;50.884;4.346;2022-12-07T10:37:26;9.10;99.90
30893;DHT22;17595;50.884;4.346;2022-12-07T10:39:57;9.00;99.90
30893;DHT22;17595;50.884;4.346;2022-12-07T10:42:30;8.90;99.90
30893;DHT22;17595;50.884;4.346;2022-12-07T10:47:51;9.00;99.90
30893;DHT22;17595;50.884;4.346;2022-12-07T10:58:30;8.80;99.90
30893;DHT22;17595;50.884;4.346;2022-12-07T11:06:29;8.90;99.90
30893;DHT22;17595;50.884;4.346;2022-12-07T11:16:56;8.80;99.90
30893;DHT22;17595;50.884;4.346;2022-12-07T11:19:47;8.70;99.90
30893;DHT22;17595;50.884;4.346;2022-12-07T11:27:34;8.30;99.90
30893;DHT22;17595;50.884;4.346;2022-12-07T11:33:10;8.10;99.90
30893;DHT22;17595;50.884;4.346;2022-12-07T11:35:50;8.30;99.90
30893;DHT22;17595;50.884;4.346;2022-12-07T11:38:20;8.60;99.90
30893;DHT22;17595;50.884;4.346;2022-12-07T11:40:50;8.70;99.90
30893;DHT22;17595;50.884;4.346;2022-12-07T11:43:32;8.70;99.90
30893;DHT22;17595;50.884;4.346;2022-12-07T11:46:04;8.70;99.90
30893;DHT22;17595;50.884;4.346;2022-12-07T11:51:12;8.60;99.90
30893;DHT22;17595;50.884;4.346;2022-12-07T11:53:49;8.60;99.90
30893;DHT22;17595;50.884;4.346;2022-12-07T11:56:17;8.50;99.90
30893;DHT22;17595;50.884;4.346;2022-12-07T12:03:51;8.90;99.90
30893;DHT22;17595;50.884;4.346;2022-12-07T12:06:17;9.00;99.90
30893;DHT22;17595;50.884;4.346;2022-12-07T12:08:55;9.00;99.90
30893;DHT22;17595;50.884;4.346;2022-12-07T12:22:39;8.80;99.90
30893;DHT22;17595;50.884;4.346;2022-12-07T12:25:19;8.80;99.90
30893;DHT22;17595;50.884;4.346;2022-12-07T12:27:47;8.80;99.90
30893;DHT22;17595;50.884;4.346;2022-12-07T12:30:43;8.60;99.90
30893;DHT22;17595;50.884;4.346;2022-12-07T12:33:26;8.50;99.90
30893;DHT22;17595;50.884;4.346;2022-12-07T12:51:58;8.30;99.90
30893;DHT22;17595;50.884;4.346;2022-12-07T12:57:29;8.20;99.90
30893;DHT22;17595;50.884;4.346;2022-12-07T12:59:56;8.10;99.90
30893;DHT22;17595;50.884;4.346;2022-12-07T13:02:32;8.20;99.90
30893;DHT22;17595;50.884;4.346;2022-12-07T13:07:58;8.70;99.90
30893;DHT22;17595;50.884;4.346;2022-12-07T13:28:50;8.90;99.90
30893;DHT22;17595;50.884;4.346;2022-12-07T13:31:30;9.10;99.90
30893;DHT22;17595;50.884;4.346;2022-12-07T13:33:57;9.30;99.90
30893;DHT22;17595;50.884;4.346;2022-12-07T13:36:25;9.40;99.90
30893;DHT22;17595;50.884;4.346;2022-12-07T13:38:57;9.40;99.90
30893;DHT22;17595;50.884;4.346;2022-12-07T13:41:25;9.50;99.90
30893;DHT22;17595;50.884;4.346;2022-12-07T13:46:44;9.10;99.90
30893;DHT22;17595;50.884;4.346;2022-12-07T13:49:22;8.90;99.90
30893;DHT22;17595;50.884;4.346;2022-12-07T13:51:48;9.10;99.90
30893;DHT22;17595;50.884;4.346;2022-12-07T13:54:14;9.20;99.90
30893;DHT22;17595;50.884;4.346;2022-12-07T13:56:40;8.90;99.90
30893;DHT22;17595;50.884;4.346;2022-12-07T13:59:21;8.60;99.90
30893;DHT22;17595;50.884;4.346;2022-12-07T14:01:50;8.30;99.90
30893;DHT22;17595;50.884;4.346;2022-12-07T14:06:57;8.20;99.90
30893;DHT22;17595;50.884;4.346;2022-12-07T14:09:25;7.90;99.90
30893;DHT22;17595;50.884;4.346;2022-12-07T14:11:54;7.80;99.90
30893;DHT22;17595;50.884;4.346;2022-12-07T14:14:26;7.70;99.90
30893;DHT22;17595;50.884;4.346;2022-12-07T14:24:44;8.00;99.90
30893;DHT22;17595;50.884;4.346;2022-12-07T14:27:21;8.10;99.90
30893;DHT22;17595;50.884;4.346;2022-12-07T14:29:47;8.20;99.90
30893;DHT22;17595;50.884;4.346;2022-12-07T14:32:24;8.20;99.90
30893;DHT22;17595;50.884;4.346;2022-12-07T14:35:08;8.20;99.90
30893;DHT22;17595;50.884;4.346;2022-12-07T14:37:36;8.10;99.90
30893;DHT22;17595;50.884;4.346;2022-12-07T14:40:03;8.00;99.90
30893;DHT22;17595;50.884;4.346;2022-12-07T14:42:30;8.00;99.90
30893;DHT22;17595;50.884;4.346;2022-12-07T14:44:57;8.10;99.90
30893;DHT22;17595;50.884;4.346;2022-12-07T14:47:24;8.20;99.90
30893;DHT22;17595;50.884;4.346;2022-12-07T14:49:50;8.20;99.90
30893;DHT22;17595;50.884;4.346;2022-12-07T14:52:23;8.10;99.90
30893;DHT22;17595;50.884;4.346;2022-12-07T14:54:50;8.00;99.90
30893;DHT22;17595;50.884;4.346;2022-12-07T14:57:15;8.00;99.90
30893;DHT22;17595;50.884;4.346;2022-12-07T14:59:41;7.80;99.90
30893;DHT22;17595;50.884;4.346;2022-12-07T15:02:08;7.80;99.90
30893;DHT22;17595;50.884;4.346;2022-12-07T15:04:34;7.90;99.90
30893;DHT22;17595;50.884;4.346;2022-12-07T15:07:05;8.00;99.90
30893;DHT22;17595;50.884;4.346;2022-12-07T15:09:31;8.20;99.90
30893;DHT22;17595;50.884;4.346;2022-12-07T15:11:57;8.20;99.90
30893;DHT22;17595;50.884;4.346;2022-12-07T15:14:22;8.20;99.90
30893;DHT22;17595;50.884;4.346;2022-12-07T15:16:48;8.30;99.90
30893;DHT22;17595;50.884;4.346;2022-12-07T15:19:19;8.10;99.90
30893;DHT22;17595;50.884;4.346;2022-12-07T15:21:46;8.20;99.90
30893;DHT22;17595;50.884;4.346;2022-12-07T15:24:12;8.00;99.90
30893;DHT22;17595;50.884;4.346;2022-12-07T15:26:39;8.00;99.90
30893;DHT22;17595;50.884;4.346;2022-12-07T15:29:05;8.10;99.90
30893;DHT22;17595;50.884;4.346;2022-12-07T15:31:32;8.10;99.90
30893;DHT22;17595;50.884;4.346;2022-12-07T15:33:58;8.10;99.90
30893;DHT22;17595;50.884;4.346;2022-12-07T15:36:26;8.10;99.90
30893;DHT22;17595;50.884;4.346;2022-12-07T15:38:52;8.10;99.90
30893;DHT22;17595;50.884;4.346;2022-12-07T15:41:18;7.90;99.90
30893;DHT22;17595;50.884;4.346;2022-12-07T15:43:43;7.90;99.90
30893;DHT22;17595;50.884;4.346;2022-12-07T15:46:36;7.80;99.90
30893;DHT22;17595;50.884;4.346;2022-12-07T15:49:03;7.80;99.90
30893;DHT22;17595;50.884;4.346;2022-12-07T15:51:28;7.80;99.90
30893;DHT22;17595;50.884;4.346;2022-12-07T15:53:54;7.70;99.90
30893;DHT22;17595;50.884;4.346;2022-12-07T15:56:20;7.70;99.90
30893;DHT22;17595;50.884;4.346;2022-12-07T15:58:46;7.70;99.90
30893;DHT22;17595;50.884;4.346;2022-12-07T16:01:17;7.70;99.90
30893;DHT22;17595;50.884;4.346;2022-12-07T16:03:44;7.60;99.90
30893;DHT22;17595;50.884;4.346;2022-12-07T16:06:09;7.60;99.90
30893;DHT22;17595;50.884;4.346;2022-12-07T16:08:35;7.70;99.90
30893;DHT22;17595;50.884;4.346;2022-12-07T16:11:05;7.90;99.90
30893;DHT22;17595;50.884;4.346;2022-12-07T16:13:31;8.00;99.90
30893;DHT22;17595;50.884;4.346;2022-12-07T16:15:57;7.90;99.90
30893;DHT22;17595;50.884;4.346;2022-12-07T16:18:22;8.00;99.90
30893;DHT22;17595;50.884;4.346;2022-12-07T16:20:48;8.00;99.90
30893;DHT22;17595;50.884;4.346;2022-12-07T16:23:14;8.20;99.90
30893;DHT22;17595;50.884;4.346;2022-12-07T16:25:40;8.40;99.90
30893;DHT22;17595;50.884;4.346;2022-12-07T16:28:06;8.40;99.90
30893;DHT22;17595;50.884;4.346;2022-12-07T16:30:31;8.60;99.90
30893;DHT22;17595;50.884;4.346;2022-12-07T16:32:57;8.60;99.90
30893;DHT22;17595;50.884;4.346;2022-12-07T16:35:23;8.30;99.90
30893;DHT22;17595;50.884;4.346;2022-12-07T16:37:48;8.30;99.90
30893;DHT22;17595;50.884;4.346;2022-12-07T16:40:14;8.50;99.90
30893;DHT22;17595;50.884;4.346;2022-12-07T16:42:40;8.50;99.90
30893;DHT22;17595;50.884;4.346;2022-12-07T16:45:05;8.30;99.90
30893;DHT22;17595;50.884;4.346;2022-12-07T16:47:31;8.30;99.90
30893;DHT22;17595;50.884;4.346;2022-12-07T16:49:57;8.40;99.90
30893;DHT22;17595;50.884;4.346;2022-12-07T16:52:22;8.50;99.90
30893;DHT22;17595;50.884;4.346;2022-12-07T16:54:49;8.50;99.90
30893;DHT22;17595;50.884;4.346;2022-12-07T16:57:16;8.50;99.90
30893;DHT22;17595;50.884;4.346;2022-12-07T16:59:41;8.50;99.90
30893;DHT22;17595;50.884;4.346;2022-12-07T17:02:11;8.70;99.90
30893;DHT22;17595;50.884;4.346;2022-12-07T17:04:36;8.80;99.90
30893;DHT22;17595;50.884;4.346;2022-12-07T17:07:08;8.80;99.90
30893;DHT22;17595;50.884;4.346;2022-12-07T17:09:33;8.80;99.90
30893;DHT22;17595;50.884;4.346;2022-12-07T17:12:00;8.70;99.90
30893;DHT22;17595;50.884;4.346;2022-12-07T17:14:26;8.70;99.90
30893;DHT22;17595;50.884;4.346;2022-12-07T17:17:10;8.70;99.90
30893;DHT22;17595;50.884;4.346;2022-12-07T17:19:35;8.80;99.90
30893;DHT22;17595;50.884;4.346;2022-12-07T17:22:01;8.80;99.90
30893;DHT22;17595;50.884;4.346;2022-12-07T17:24:27;8.90;99.90
30893;DHT22;17595;50.884;4.346;2022-12-07T17:26:53;8.80;99.90
30893;DHT22;17595;50.884;4.346;2022-12-07T17:29:18;8.70;99.90
30893;DHT22;17595;50.884;4.346;2022-12-07T17:31:46;8.80;99.90
30893;DHT22;17595;50.884;4.346;2022-12-07T17:34:13;8.80;99.90
30893;DHT22;17595;50.884;4.346;2022-12-07T17:36:40;8.90;99.90
30893;DHT22;17595;50.884;4.346;2022-12-07T17:39:10;9.00;99.90
30893;DHT22;17595;50.884;4.346;2022-12-07T17:41:37;9.10;99.90
30893;DHT22;17595;50.884;4.346;2022-12-07T17:44:21;9.20;99.90
30893;DHT22;17595;50.884;4.346;2022-12-07T17:46:50;9.20;99.90
30893;DHT22;17595;50.884;4.346;2022-12-07T17:49:20;9.30;99.90
30893;DHT22;17595;50.884;4.346;2022-12-07T17:51:46;9.30;99.90
30893;DHT22;17595;50.884;4.346;2022-12-07T17:54:29;9.10;99.90
30893;DHT22;17595;50.884;4.346;2022-12-07T17:56:55;9.10;99.90
30893;DHT22;17595;50.884;4.346;2022-12-07T17:59:21;9.20;99.90
30893;DHT22;17595;50.884;4.346;2022-12-07T18:01:46;9.20;99.90
30893;DHT22;17595;50.884;4.346;2022-12-07T18:04:12;8.90;99.90
30893;DHT22;17595;50.884;4.346;2022-12-07T18:06:38;8.80;99.90
30893;DHT22;17595;50.884;4.346;2022-12-07T18:09:04;8.70;99.90
30893;DHT22;17595;50.884;4.346;2022-12-07T18:11:30;8.70;99.90
30893;DHT22;17595;50.884;4.346;2022-12-07T18:13:56;8.70;99.90
30893;DHT22;17595;50.884;4.346;2022-12-07T18:16:25;8.70;99.90
30893;DHT22;17595;50.884;4.346;2022-12-07T18:18:52;8.70;99.90
30893;DHT22;17595;50.884;4.346;2022-12-07T18:21:23;8.70;99.90
30893;DHT22;17595;50.884;4.346;2022-12-07T18:23:52;8.70;99.90
30893;DHT22;17595;50.884;4.346;2022-12-07T18:26:18;8.80;99.90
30893;DHT22;17595;50.884;4.346;2022-12-07T18:28:45;8.80;99.90